Rechercher aéroport 
image banner adimage banner adimage banner ad
image banner ad

74CN - Camatta Ranch Airstrip

Situé à Paso Robles, United States

ICAO - 74CN, IATA -

Données fournies par Airmate  

Information générale

Coordonnées: N35°28'35" W120°18'32"
Élévation : 1358 feet MSL.
 
Voir autres Aéroports à California

Données opérationnelles

Special qualification required
Heure actuelle UTC:
Heure actuelle locale:
Météo à : KPRB - Paso Robles Muni ( 36 km )
METAR: KPRB 251453Z AUTO 00000KT 10SM CLR 16/11 A2998 RMK AO2 SLP146 T01610106 52007
TAF: KPRB 251158Z 2512/2612 VRB03KT P6SM SCT150 FM252000 21015KT P6SM BKN150 FM252300 21019G26KT P6SM BKN150 FM260300 20012KT P6SM BKN150 FM260700 VRB03KT P6SM BKN150
Voir NOTAMs / SUP AIP / TFR affectant cet aéroport [VIEW]
Fréquences de communication: [VIEW]

Pistes:

Identifiant RWYQFULongueur (ft)Largeur (ft)SurfaceLDA (ft)
11251535ASPH
29251535ASPH

Coordonnées de l'aéroport

Adresse: Paso Robles United States

Vue satellite de 74CN